Time;durP1;ratioP1;P1;durP2;ratioP2;P2;SDS_P1;SDS_P2;PMS_P1;PMS_P2;Temp;Humidity;BMP_temperature;BMP_pressure;BME280_temperature;BME280_humidity;BME280_pressure;Samples;Min_cycle;Max_cycle;Signal;HPM_P1;HPM_P2
2021/01/05 00:01:32;;;;;;;50.97;30.25;;;;;;;2.69;100.00;101037.88;5009331;28;20083;-72
2021/01/05 00:03:57;;;;;;;57.88;36.83;;;;;;;2.78;100.00;101030.53;5008147;28;20536;-72
2021/01/05 00:06:22;;;;;;;38.75;20.30;;;;;;;2.87;100.00;101040.03;5008033;28;20041;-72
2021/01/05 00:08:48;;;;;;;59.25;35.60;;;;;;;2.82;100.00;101034.88;5001163;28;20033;-71
2021/01/05 00:11:13;;;;;;;41.35;21.40;;;;;;;2.87;100.00;101034.72;5009082;28;20069;-72
2021/01/05 00:13:39;;;;;;;38.70;20.05;;;;;;;2.84;100.00;101048.06;5011204;28;20029;-72
2021/01/05 00:16:05;;;;;;;42.65;20.70;;;;;;;2.88;100.00;101049.72;5007755;28;20045;-71
2021/01/05 00:18:30;;;;;;;39.75;22.48;;;;;;;2.78;100.00;101057.03;5004448;28;20452;-70
2021/01/05 00:20:55;;;;;;;39.10;21.23;;;;;;;2.88;100.00;101044.44;5009186;28;20454;-72
2021/01/05 00:23:21;;;;;;;41.28;21.40;;;;;;;2.82;100.00;101055.19;5009765;28;20064;-72
2021/01/05 00:25:46;;;;;;;41.10;22.15;;;;;;;2.78;100.00;101051.75;5009420;28;20453;-72
2021/01/05 00:28:12;;;;;;;40.97;22.15;;;;;;;2.71;100.00;101049.31;5007758;28;20534;-72
2021/01/05 00:30:37;;;;;;;42.15;21.90;;;;;;;2.70;100.00;101050.22;5006554;28;20040;-72
2021/01/05 00:33:05;;;;;;;41.35;20.85;;;;;;;2.76;100.00;101050.06;5007372;28;20435;-71
2021/01/05 00:35:32;;;;;;;44.72;21.60;;;;;;;2.78;100.00;101053.53;5009332;28;20048;-72
2021/01/05 00:37:58;;;;;;;44.00;22.92;;;;;;;2.68;100.00;101052.03;4992575;28;20375;-71
2021/01/05 00:40:25;;;;;;;45.25;23.05;;;;;;;2.77;100.00;101050.03;5008425;28;20028;-72
2021/01/05 00:42:52;;;;;;;48.53;25.88;;;;;;;2.73;100.00;101053.66;5008277;28;20560;-71
2021/01/05 00:45:36;;;;;;;44.15;23.15;;;;;;;2.88;100.00;101055.03;5008503;28;20165;-71
2021/01/05 00:48:02;;;;;;;40.83;22.77;;;;;;;2.84;100.00;101042.75;5006313;28;20108;-70
2021/01/05 00:50:29;;;;;;;43.88;22.08;;;;;;;2.94;100.00;101044.25;5007484;28;20116;-71
2021/01/05 00:52:55;;;;;;;44.25;22.92;;;;;;;2.86;100.00;101046.25;5008516;28;20120;-71
2021/01/05 00:55:21;;;;;;;38.20;21.35;;;;;;;2.78;100.00;101056.19;5008757;28;20112;-72
2021/01/05 00:57:47;;;;;;;46.85;23.02;;;;;;;2.67;100.00;101045.88;4992589;28;20030;-71
2021/01/05 01:00:22;;;;;;;44.42;21.92;;;;;;;2.86;100.00;101046.25;5006268;28;20112;-72
2021/01/05 01:02:50;;;;;;;45.85;22.65;;;;;;;2.72;100.00;101045.75;5020965;28;20513;-72
2021/01/05 01:05:19;;;;;;;41.50;22.15;;;;;;;2.72;100.00;101053.69;5003806;28;20092;-72
2021/01/05 01:07:45;;;;;;;48.95;23.30;;;;;;;2.77;100.00;101054.47;5008792;28;20029;-71
2021/01/05 01:10:12;;;;;;;45.55;21.88;;;;;;;2.76;100.00;101050.06;5007195;28;20586;-71
2021/01/05 01:12:37;;;;;;;40.72;22.15;;;;;;;2.78;100.00;101058.81;5005987;28;20025;-72
2021/01/05 01:15:05;;;;;;;43.35;21.63;;;;;;;2.83;100.00;101057.81;5006511;28;20030;-72
2021/01/05 01:17:32;;;;;;;45.42;22.42;;;;;;;2.85;100.00;101061.28;4989457;28;20048;-72
2021/01/05 01:19:57;;;;;;;44.10;22.10;;;;;;;2.78;100.00;101065.00;5006466;28;20482;-71
2021/01/05 01:22:25;;;;;;;43.95;22.73;;;;;;;2.75;100.00;101064.22;5007938;28;20033;-71
2021/01/05 01:24:59;;;;;;;41.45;22.48;;;;;;;2.74;100.00;101057.19;5007301;28;20087;-71
2021/01/05 01:27:33;;;;;;;41.33;21.27;;;;;;;2.71;100.00;101068.75;5006642;28;20034;-71
2021/01/05 01:29:59;;;;;;;41.15;21.75;;;;;;;2.76;100.00;101063.31;5008301;28;20049;-71
2021/01/05 01:32:24;;;;;;;41.83;20.52;;;;;;;2.73;100.00;101056.31;4998938;28;20044;-71
2021/01/05 01:34:50;;;;;;;40.75;21.48;;;;;;;2.75;100.00;101058.94;5008329;28;20033;-71
2021/01/05 01:37:20;;;;;;;39.42;21.55;;;;;;;2.76;100.00;101060.66;4991966;28;20025;-72
2021/01/05 01:39:51;;;;;;;41.25;21.77;;;;;;;2.71;100.00;101068.75;5003232;28;20088;-71
2021/01/05 01:42:23;;;;;;;39.55;20.17;;;;;;;2.73;100.00;101061.59;5005921;28;20034;-72
2021/01/05 01:44:50;;;;;;;44.85;22.50;;;;;;;2.80;100.00;101062.31;4988456;28;20034;-72
2021/01/05 01:47:22;;;;;;;43.78;21.98;;;;;;;2.70;100.00;101060.84;5002778;28;20026;-72
2021/01/05 01:49:51;;;;;;;38.95;21.02;;;;;;;2.72;100.00;101064.28;5004723;28;20036;-71
2021/01/05 01:52:44;;;;;;;38.85;20.55;;;;;;;2.75;100.00;101064.22;5022114;28;20084;-71
2021/01/05 01:55:34;;;;;;;40.30;20.88;;;;;;;2.76;100.00;101060.66;5006377;28;20041;-72
2021/01/05 01:58:17;;;;;;;44.00;20.55;;;;;;;2.69;100.00;101062.63;5001090;28;20029;-71
2021/01/05 02:00:57;;;;;;;47.45;21.77;;;;;;;2.65;100.00;101063.63;5006847;28;20113;-71
2021/01/05 02:03:44;;;;;;;42.05;21.65;;;;;;;2.68;100.00;101058.22;5005057;28;20030;-72
2021/01/05 02:06:36;;;;;;;41.55;20.88;;;;;;;2.80;100.00;101057.88;5005068;28;20038;-71
2021/01/05 02:09:14;;;;;;;42.70;20.58;;;;;;;2.78;100.00;101057.03;5005415;28;20492;-71
2021/01/05 02:12:03;;;;;;;41.55;21.17;;;;;;;2.67;100.00;101050.31;5004601;28;20033;-72
2021/01/05 02:14:49;;;;;;;38.05;20.52;;;;;;;2.71;100.00;101054.63;5006489;28;20035;-71
2021/01/05 02:17:39;;;;;;;44.83;22.92;;;;;;;2.80;100.00;101051.72;5000709;28;20524;-71
2021/01/05 02:20:28;;;;;;;48.58;23.20;;;;;;;2.73;100.00;101052.78;5003678;28;20064;-72
2021/01/05 02:23:35;;;;;;;44.75;22.70;;;;;;;2.79;100.00;101055.28;4998888;28;20030;-70
2021/01/05 02:26:10;;;;;;;44.93;21.93;;;;;;;2.82;100.00;101050.78;5005064;28;20060;-71
2021/01/05 02:28:49;;;;;;;45.03;22.08;;;;;;;2.69;100.00;101051.13;5006400;28;20277;-72
2021/01/05 02:31:33;;;;;;;44.05;21.23;;;;;;;2.72;100.00;101053.69;5020645;28;20037;-72
2021/01/05 02:34:22;;;;;;;47.72;22.60;;;;;;;2.77;100.00;101046.50;5019660;28;20033;-71
2021/01/05 02:37:13;;;;;;;46.00;23.75;;;;;;;2.79;100.00;101048.19;5004565;28;20030;-72
2021/01/05 02:40:31;;;;;;;46.30;22.77;;;;;;;2.86;100.00;101054.19;5004374;28;20068;-72
2021/01/05 02:43:54;;;;;;;44.97;22.08;;;;;;;2.82;100.00;101044.59;4984431;28;20037;-72
2021/01/05 02:46:50;;;;;;;41.50;21.25;;;;;;;2.78;100.00;101045.56;4990427;28;20057;-71
2021/01/05 02:49:45;;;;;;;42.28;21.38;;;;;;;2.76;100.00;101044.78;5004804;28;20200;-72
2021/01/05 02:52:55;;;;;;;42.03;21.77;;;;;;;2.69;100.00;101037.88;5010145;28;20057;-71
2021/01/05 02:56:30;;;;;;;45.78;22.67;;;;;;;2.77;100.00;101038.56;5009910;28;20077;-72
2021/01/05 02:59:32;;;;;;;45.88;22.45;;;;;;;2.73;100.00;101034.22;5009265;28;20095;-72
2021/01/05 03:03:07;;;;;;;46.42;22.75;;;;;;;2.69;100.00;101037.88;4986517;28;20520;-72
2021/01/05 03:06:25;;;;;;;54.10;23.35;;;;;;;2.80;100.00;101043.75;4992134;28;20513;-72
2021/01/05 03:09:21;;;;;;;42.75;21.35;;;;;;;2.88;100.00;101033.81;5008153;28;20191;-72
2021/01/05 03:12:11;;;;;;;46.65;22.20;;;;;;;2.90;100.00;101034.63;5009823;28;20057;-71
2021/01/05 03:15:10;;;;;;;41.33;21.70;;;;;;;2.82;100.00;101039.28;5010160;28;20053;-72
2021/01/05 03:18:04;;;;;;;45.13;21.98;;;;;;;2.75;100.00;101037.72;5006509;28;20091;-72
2021/01/05 03:21:03;;;;;;;38.50;21.00;;;;;;;2.74;100.00;101038.63;5006186;28;20060;-72
2021/01/05 03:23:51;;;;;;;45.17;22.00;;;;;;;2.74;100.00;101041.28;4987851;28;20049;-72
2021/01/05 03:26:48;;;;;;;49.03;23.25;;;;;;;2.77;100.00;101036.78;5005027;28;20052;-72
2021/01/05 03:29:33;;;;;;;50.88;24.40;;;;;;;2.68;100.00;101033.50;5006379;28;20466;-71
2021/01/05 03:32:17;;;;;;;51.97;24.45;;;;;;;2.70;100.00;101039.63;5009487;28;20045;-71
2021/01/05 03:35:01;;;;;;;53.33;25.77;;;;;;;2.71;100.00;101041.38;5010309;28;20057;-71
2021/01/05 03:37:45;;;;;;;53.97;26.38;;;;;;;2.76;100.00;101042.13;5005705;28;20069;-71
2021/01/05 03:40:29;;;;;;;62.67;30.02;;;;;;;2.72;100.00;101043.09;5006018;28;20464;-71
2021/01/05 03:43:13;;;;;;;59.05;28.30;;;;;;;2.68;100.00;101038.78;5010299;28;20433;-71
2021/01/05 03:45:56;;;;;;;58.40;28.13;;;;;;;2.68;100.00;101042.31;5008012;28;20052;-71
2021/01/05 03:48:48;;;;;;;62.70;30.10;;;;;;;2.66;100.00;101043.25;4978935;28;20056;-72
2021/01/05 03:51:32;;;;;;;62.88;29.58;;;;;;;2.74;100.00;101038.63;5004586;28;20065;-71
2021/01/05 03:54:16;;;;;;;64.13;29.85;;;;;;;2.71;100.00;101042.25;5010479;28;20045;-72
2021/01/05 03:57:00;;;;;;;65.72;29.75;;;;;;;2.82;100.00;101028.69;5010746;28;20132;-72
2021/01/05 03:59:46;;;;;;;63.63;30.42;;;;;;;2.68;100.00;101037.00;5008578;28;20082;-71
2021/01/05 04:02:29;;;;;;;60.90;28.40;;;;;;;2.80;100.00;101041.09;5009048;28;20108;-71
2021/01/05 04:04:55;;;;;;;62.97;28.58;;;;;;;2.80;100.00;101035.81;5009921;28;20120;-72
2021/01/05 04:07:20;;;;;;;63.40;28.33;;;;;;;2.82;100.00;101042.81;5007210;28;20044;-71
2021/01/05 04:09:45;;;;;;;62.30;27.45;;;;;;;2.85;100.00;101034.75;5009787;28;20045;-72
2021/01/05 04:12:11;;;;;;;60.85;27.25;;;;;;;2.83;100.00;101043.69;5008300;28;20030;-72
2021/01/05 04:14:36;;;;;;;57.42;26.90;;;;;;;2.84;100.00;101045.41;5010403;28;20498;-71
2021/01/05 04:17:02;;;;;;;59.45;27.83;;;;;;;2.69;100.00;101043.19;4991469;28;20040;-72
2021/01/05 04:19:28;;;;;;;60.00;29.70;;;;;;;2.66;100.00;101035.31;5006562;28;20121;-71
2021/01/05 04:21:53;;;;;;;59.88;29.17;;;;;;;2.79;100.00;101028.75;5007134;28;20509;-71
2021/01/05 04:24:19;;;;;;;58.03;27.48;;;;;;;2.73;100.00;101036.88;5009372;28;20030;-71
2021/01/05 04:26:45;;;;;;;59.28;27.27;;;;;;;2.64;100.00;101034.50;5007601;28;20029;-72
2021/01/05 04:29:11;;;;;;;60.08;28.65;;;;;;;2.76;100.00;101039.47;5008379;28;20188;-71
2021/01/05 04:31:38;;;;;;;58.95;29.25;;;;;;;2.66;100.00;101032.66;5009087;28;20104;-72
2021/01/05 04:34:04;;;;;;;60.40;27.88;;;;;;;2.78;100.00;101041.16;5006541;28;20076;-71
2021/01/05 04:36:30;;;;;;;64.50;29.17;;;;;;;2.71;100.00;101036.06;5008876;28;20112;-72
2021/01/05 04:38:55;;;;;;;61.53;28.52;;;;;;;2.92;100.00;101035.47;5009359;28;20112;-71
2021/01/05 04:41:20;;;;;;;58.10;27.98;;;;;;;2.77;100.00;101041.22;5008880;28;20026;-72
2021/01/05 04:43:51;;;;;;;60.08;27.20;;;;;;;2.85;100.00;101045.38;5012339;28;20024;-72
2021/01/05 04:46:19;;;;;;;59.75;28.05;;;;;;;2.71;100.00;101046.69;5009126;28;20206;-71
2021/01/05 04:49:11;;;;;;;64.32;27.95;;;;;;;2.82;100.00;101055.19;5004605;28;20044;-72
2021/01/05 04:51:46;;;;;;;65.63;29.03;;;;;;;2.70;100.00;101050.22;5007379;28;20030;-72
2021/01/05 04:54:49;;;;;;;61.15;28.67;;;;;;;2.73;100.00;101055.44;5009802;28;20335;-72
2021/01/05 04:57:18;;;;;;;63.35;29.63;;;;;;;2.77;100.00;101051.81;5004412;28;20148;-72
2021/01/05 04:59:51;;;;;;;59.05;27.83;;;;;;;2.73;100.00;101044.84;5008750;28;20029;-72
2021/01/05 05:02:37;;;;;;;64.97;27.52;;;;;;;2.77;100.00;101046.50;5008031;28;20738;-71
2021/01/05 05:05:05;;;;;;;58.60;27.95;;;;;;;2.82;100.00;101055.19;5007335;28;20041;-72
2021/01/05 05:07:30;;;;;;;58.38;28.30;;;;;;;2.79;100.00;101057.91;5009279;28;20029;-72
2021/01/05 05:10:17;;;;;;;62.10;27.75;;;;;;;2.68;100.00;101057.34;5017746;28;20042;-71
2021/01/05 05:13:01;;;;;;;61.97;28.13;;;;;;;2.63;100.00;101059.25;5007635;28;20095;-72
2021/01/05 05:15:35;;;;;;;61.05;27.77;;;;;;;2.64;100.00;101061.00;5002791;28;20042;-71
2021/01/05 05:18:31;;;;;;;60.25;29.05;;;;;;;2.64;100.00;101058.34;5007278;28;20037;-72
2021/01/05 05:21:20;;;;;;;57.47;26.92;;;;;;;2.84;100.00;101056.00;5001298;28;20049;-72
2021/01/05 05:23:51;;;;;;;57.38;26.80;;;;;;;2.85;100.00;101060.41;5005418;28;20044;-72
2021/01/05 05:26:45;;;;;;;51.17;24.52;;;;;;;2.73;100.00;101066.03;5004685;28;20044;-72
2021/01/05 05:29:21;;;;;;;61.90;27.83;;;;;;;2.88;100.00;101062.13;5007276;28;20378;-72
2021/01/05 05:31:49;;;;;;;55.53;26.92;;;;;;;2.80;100.00;101057.00;5003624;28;20057;-72
2021/01/05 05:34:28;;;;;;;59.90;27.95;;;;;;;2.74;100.00;101057.19;5008967;28;20041;-72
2021/01/05 05:37:35;;;;;;;62.50;29.02;;;;;;;2.73;100.00;101066.03;5006601;28;20038;-71
2021/01/05 05:40:17;;;;;;;63.75;28.63;;;;;;;2.77;100.00;101073.03;4986627;28;20048;-72
2021/01/05 05:43:18;;;;;;;62.73;28.17;;;;;;;2.73;100.00;101071.34;5005340;28;20080;-72
2021/01/05 05:45:50;;;;;;;62.38;28.75;;;;;;;2.86;100.00;101064.81;4966672;28;20039;-72
2021/01/05 05:48:21;;;;;;;;;;;;;;;2.78;100.00;101074.72;4999590;28;20041;-72
2021/01/05 05:51:01;;;;;;;61.72;28.35;;;;;;;2.72;100.00;101069.59;5006996;28;19918;-71
2021/01/05 05:53:33;;;;;;;63.30;28.25;;;;;;;2.75;100.00;101073.06;5005320;28;20029;-72
2021/01/05 05:56:03;;;;;;;62.38;29.02;;;;;;;2.77;100.00;101079.19;5005923;28;20040;-71
2021/01/05 05:58:34;;;;;;;61.30;28.67;;;;;;;2.74;100.00;101083.69;5006193;28;20633;-71
2021/01/05 06:01:03;;;;;;;65.07;29.50;;;;;;;2.75;100.00;101085.44;5006610;28;20030;-72
2021/01/05 06:03:29;;;;;;;61.65;26.70;;;;;;;2.83;100.00;101072.84;5005715;28;20107;-71
2021/01/05 06:05:55;;;;;;;54.05;24.98;;;;;;;2.81;100.00;101083.50;5005303;28;20120;-70
2021/01/05 06:08:23;;;;;;;52.63;25.50;;;;;;;2.82;100.00;101081.72;5002086;28;20030;-70
2021/01/05 06:10:51;;;;;;;54.78;24.83;;;;;;;2.74;100.00;101079.25;5003312;28;20042;-70
2021/01/05 06:13:16;;;;;;;53.13;24.58;;;;;;;2.69;100.00;101080.28;5007504;28;20135;-72
2021/01/05 06:15:42;;;;;;;58.03;26.63;;;;;;;2.65;100.00;101087.47;5006180;28;20502;-72
2021/01/05 06:18:10;;;;;;;57.15;25.27;;;;;;;2.77;100.00;101086.28;5004889;28;20477;-72
2021/01/05 06:20:36;;;;;;;56.95;26.80;;;;;;;2.88;100.00;101092.16;4987428;28;572744;-72
2021/01/05 06:23:02;;;;;;;54.83;24.63;;;;;;;2.76;100.00;101092.47;5008271;28;20041;-72
2021/01/05 06:25:27;;;;;;;51.80;24.25;;;;;;;2.83;100.00;101094.06;5012632;28;20094;-72
2021/01/05 06:27:53;;;;;;;54.78;23.30;;;;;;;2.76;100.00;101092.47;5010143;28;20034;-71
2021/01/05 06:30:19;;;;;;;52.17;24.02;;;;;;;2.86;100.00;101096.63;4991804;28;20048;-71
2021/01/05 06:32:44;;;;;;;46.42;23.45;;;;;;;2.88;100.00;101094.81;5006662;28;20564;-72
2021/01/05 06:35:11;;;;;;;51.72;22.13;;;;;;;2.81;100.00;101091.44;5010445;28;20041;-71
2021/01/05 06:37:37;;;;;;;45.38;22.27;;;;;;;3.00;100.00;101102.44;5011043;28;20041;-71
2021/01/05 06:40:05;;;;;;;52.20;23.30;;;;;;;2.81;100.00;101098.53;5009864;28;20461;-72
2021/01/05 06:42:31;;;;;;;48.67;22.95;;;;;;;2.77;100.00;101099.53;5010766;28;20148;-72
2021/01/05 06:44:56;;;;;;;49.58;25.02;;;;;;;2.74;100.00;101104.88;5008152;28;20045;-72
2021/01/05 06:47:22;;;;;;;48.00;21.95;;;;;;;2.75;100.00;101096.03;5006469;28;21200;-72
2021/01/05 06:49:47;;;;;;;47.22;22.17;;;;;;;2.76;100.00;101103.09;5008408;28;20145;-72
2021/01/05 06:52:13;;;;;;;48.90;24.83;;;;;;;2.79;100.00;101108.28;5011985;28;20029;-72
2021/01/05 06:54:38;;;;;;;59.70;28.13;;;;;;;2.76;100.00;101108.38;5008395;28;20502;-72
2021/01/05 06:57:04;;;;;;;58.97;24.98;;;;;;;2.74;100.00;101110.19;5007863;28;20804;-72
2021/01/05 06:59:29;;;;;;;48.08;23.38;;;;;;;2.69;100.00;101106.78;5009522;28;20064;-71
2021/01/05 07:02:06;;;;;;;52.63;23.05;;;;;;;2.71;100.00;101100.56;5007704;28;20038;-72
2021/01/05 07:04:32;;;;;;;45.88;21.13;;;;;;;2.80;100.00;101102.06;5008940;28;20125;-71
2021/01/05 07:06:58;;;;;;;42.90;19.45;;;;;;;2.71;100.00;101095.25;5010648;28;20037;-72
2021/01/05 07:09:24;;;;;;;46.95;22.00;;;;;;;2.71;100.00;101105.00;5006392;28;20026;-72
2021/01/05 07:11:50;;;;;;;43.28;21.35;;;;;;;2.74;100.00;101104.88;5006505;28;20096;-72
2021/01/05 07:14:21;;;;;;;43.38;21.35;;;;;;;2.89;100.00;101106.28;5008162;28;20041;-72
2021/01/05 07:16:47;;;;;;;45.10;21.00;;;;;;;2.78;100.00;101107.41;5013851;28;20034;-72
2021/01/05 07:19:13;;;;;;;49.30;21.98;;;;;;;2.74;100.00;101100.47;5008515;28;20038;-71
2021/01/05 07:21:38;;;;;;;46.85;22.13;;;;;;;2.74;100.00;101107.53;5010166;28;20037;-72
2021/01/05 07:24:04;;;;;;;41.83;21.08;;;;;;;2.81;100.00;101103.81;4991043;28;20042;-72
2021/01/05 07:26:39;;;;;;;49.10;23.25;;;;;;;2.80;100.00;101105.59;5009489;28;20030;-72
2021/01/05 07:29:05;;;;;;;47.83;22.23;;;;;;;2.75;100.00;101109.28;5010049;28;20532;-72
2021/01/05 07:31:31;;;;;;;49.03;21.75;;;;;;;2.71;100.00;101107.63;5005827;28;20042;-72
2021/01/05 07:33:56;;;;;;;47.83;22.23;;;;;;;2.77;100.00;101110.13;5005526;28;20060;-71
2021/01/05 07:36:31;;;;;;;46.92;21.65;;;;;;;2.77;100.00;101111.00;5006230;28;20042;-72
2021/01/05 07:38:57;;;;;;;45.58;22.50;;;;;;;2.71;100.00;101105.84;5009544;28;20038;-71
2021/01/05 07:41:23;;;;;;;45.55;21.35;;;;;;;2.73;100.00;101104.00;5004372;28;20398;-71
2021/01/05 07:43:49;;;;;;;49.85;21.67;;;;;;;2.71;100.00;101111.16;5010344;28;20136;-72
2021/01/05 07:46:15;;;;;;;46.25;21.77;;;;;;;2.73;100.00;101114.63;5011155;28;20612;-72
2021/01/05 07:48:40;;;;;;;50.25;23.55;;;;;;;2.70;100.00;101103.25;5010568;28;20061;-72
2021/01/05 07:51:07;;;;;;;49.38;21.83;;;;;;;2.69;100.00;101106.78;5008907;28;20041;-71
2021/01/05 07:53:33;;;;;;;52.90;23.17;;;;;;;2.69;100.00;101109.44;5025503;28;20057;-72
2021/01/05 07:55:58;;;;;;;48.33;20.77;;;;;;;2.80;100.00;101112.69;5008876;28;20073;-72
2021/01/05 07:58:23;;;;;;;53.50;24.08;;;;;;;2.87;100.00;101111.63;5002643;28;20025;-72
2021/01/05 08:00:49;;;;;;;50.03;22.45;;;;;;;2.81;100.00;101111.78;5006899;28;20030;-72
2021/01/05 08:03:14;;;;;;;48.05;21.17;;;;;;;2.87;100.00;101116.91;5005111;28;20119;-72
2021/01/05 08:05:40;;;;;;;50.15;21.90;;;;;;;2.94;100.00;101117.63;5007044;28;20029;-72
2021/01/05 08:08:05;;;;;;;52.17;21.60;;;;;;;2.89;100.00;101117.75;5005731;28;20052;-72
2021/01/05 08:10:34;;;;;;;46.63;21.70;;;;;;;2.94;100.00;101121.16;4998765;28;20074;-71
2021/01/05 08:13:01;;;;;;;48.03;21.05;;;;;;;2.95;100.00;101125.56;4990904;28;20033;-72
2021/01/05 08:15:31;;;;;;;45.05;20.70;;;;;;;2.94;100.00;101121.16;4990545;28;20061;-70
2021/01/05 08:17:59;;;;;;;45.58;20.65;;;;;;;2.87;100.00;101116.91;5000319;28;20215;-71
2021/01/05 08:20:27;;;;;;;49.78;21.17;;;;;;;2.82;100.00;101125.00;4993649;28;20038;-72
2021/01/05 08:22:53;;;;;;;49.40;21.50;;;;;;;2.86;100.00;101125.78;4980177;28;20503;-71
2021/01/05 08:25:20;;;;;;;52.17;21.85;;;;;;;2.85;100.00;101129.34;5004400;28;20045;-71
2021/01/05 08:27:50;;;;;;;47.28;21.48;;;;;;;2.91;100.00;101129.16;5009919;28;20433;-72
2021/01/05 08:30:22;;;;;;;48.45;20.92;;;;;;;3.05;100.00;101134.13;5009444;28;20050;-71
2021/01/05 08:32:48;;;;;;;47.92;20.98;;;;;;;3.05;100.00;101147.38;5008083;28;20038;-72
2021/01/05 08:35:15;;;;;;;49.30;21.45;;;;;;;3.03;100.00;101143.88;5008546;28;20049;-72
2021/01/05 08:37:41;;;;;;;48.28;20.13;;;;;;;3.03;100.00;101142.09;5007743;28;20046;-72
2021/01/05 08:40:10;;;;;;;47.03;21.17;;;;;;;3.16;100.00;101146.16;5007028;28;20036;-71
2021/01/05 08:42:36;;;;;;;48.63;21.90;;;;;;;3.04;100.00;101143.84;5020022;28;20026;-71
2021/01/05 08:45:03;;;;;;;48.72;22.05;;;;;;;2.92;100.00;101144.19;5008875;28;20042;-72
2021/01/05 08:47:28;;;;;;;56.33;22.13;;;;;;;2.98;100.00;101149.31;5010016;28;20505;-72
2021/01/05 08:49:53;;;;;;;53.45;22.42;;;;;;;3.01;100.00;101140.41;5008133;28;20046;-72
2021/01/05 08:52:20;;;;;;;53.72;22.73;;;;;;;3.10;100.00;101145.47;5007604;28;20413;-72
2021/01/05 08:54:45;;;;;;;54.33;23.13;;;;;;;3.01;100.00;101141.28;5007845;28;20504;-72
2021/01/05 08:57:13;;;;;;;55.97;24.00;;;;;;;3.02;100.00;101142.16;5008143;28;20112;-72
2021/01/05 08:59:39;;;;;;;53.72;24.10;;;;;;;3.02;100.00;101150.13;5008890;28;20057;-72
2021/01/05 09:02:04;;;;;;;56.85;25.00;;;;;;;3.08;100.00;101142.88;5007490;28;20609;-72
2021/01/05 09:04:29;;;;;;;54.90;24.08;;;;;;;3.11;100.00;101141.91;5003913;28;20117;-71
2021/01/05 09:06:55;;;;;;;57.03;24.65;;;;;;;3.07;100.00;101141.13;5031887;28;20546;-71
2021/01/05 09:09:20;;;;;;;58.72;25.42;;;;;;;3.28;100.00;101141.44;5008519;28;20041;-71
2021/01/05 09:11:51;;;;;;;65.30;25.05;;;;;;;3.11;100.00;101148.09;5006582;28;20033;-71
2021/01/05 09:14:17;;;;;;;60.90;24.70;;;;;;;3.13;100.00;101145.41;5007515;28;20030;-72
2021/01/05 09:16:42;;;;;;;60.13;25.52;;;;;;;3.31;100.00;101144.03;5007750;28;20394;-72
2021/01/05 09:19:07;;;;;;;60.80;26.10;;;;;;;3.34;100.00;101143.91;4987939;28;20049;-71
2021/01/05 09:21:33;;;;;;;53.92;23.90;;;;;;;3.28;100.00;101149.41;5004010;28;20061;-72
2021/01/05 09:23:59;;;;;;;60.40;26.90;;;;;;;3.32;100.00;101148.41;5006984;28;20053;-72
2021/01/05 09:26:30;;;;;;;60.95;27.50;;;;;;;3.36;100.00;101147.41;5014886;28;20029;-72
2021/01/05 09:28:55;;;;;;;58.65;26.90;;;;;;;3.40;100.00;101154.34;5007493;28;20549;-72
2021/01/05 09:31:21;;;;;;;59.28;26.00;;;;;;;3.39;100.00;101150.00;5005442;28;20038;-76
2021/01/05 09:33:47;;;;;;;90.53;35.08;;;;;;;3.34;100.00;101150.09;4991409;28;20041;-74
2021/01/05 09:36:14;;;;;;;62.47;27.50;;;;;;;3.30;100.00;101151.09;5006480;28;20136;-74
2021/01/05 09:38:41;;;;;;;70.13;27.50;;;;;;;3.25;100.00;101145.94;5006224;28;20116;-74
2021/01/05 09:41:18;;;;;;;68.85;29.02;;;;;;;3.38;100.00;101140.28;5004932;28;20042;-74
2021/01/05 09:43:44;;;;;;;63.95;27.25;;;;;;;3.31;100.00;101130.75;5009530;28;20053;-73
2021/01/05 09:46:12;;;;;;;66.97;28.98;;;;;;;3.40;100.00;101138.44;5017923;28;20025;-74
2021/01/05 09:48:38;;;;;;;68.25;30.05;;;;;;;3.45;100.00;101139.22;5002412;28;20100;-73
2021/01/05 09:51:03;;;;;;;77.85;29.77;;;;;;;3.45;100.00;101149.81;5006632;28;20038;-74
2021/01/05 09:53:28;;;;;;;73.70;31.30;;;;;;;3.43;100.00;101154.28;5005820;28;20038;-74
2021/01/05 09:55:54;;;;;;;79.53;30.20;;;;;;;3.41;100.00;101156.09;5005986;28;20036;-74
2021/01/05 09:58:19;;;;;;;74.05;30.55;;;;;;;3.46;100.00;101159.50;5006528;28;20108;-74
2021/01/05 10:00:45;;;;;;;65.70;28.80;;;;;;;3.34;100.00;101170.44;5006467;28;20030;-74
2021/01/05 10:03:10;;;;;;;68.03;29.02;;;;;;;3.36;100.00;101152.72;5006886;28;20041;-74
2021/01/05 10:05:35;;;;;;;74.57;31.15;;;;;;;3.29;100.00;101157.31;5007175;28;20144;-74
2021/01/05 10:08:01;;;;;;;77.97;29.58;;;;;;;3.36;100.00;101153.59;5005939;28;20100;-74
2021/01/05 10:10:28;;;;;;;79.18;31.40;;;;;;;3.40;100.00;101149.94;5007785;28;20034;-74
2021/01/05 10:12:54;;;;;;;71.28;30.42;;;;;;;3.38;100.00;101150.91;5005749;28;20036;-75
2021/01/05 10:15:22;;;;;;;75.70;29.55;;;;;;;3.34;100.00;101146.56;5004472;28;20096;-74
2021/01/05 10:17:48;;;;;;;73.07;29.83;;;;;;;3.45;100.00;101139.22;5004271;28;20040;-71
2021/01/05 10:20:15;;;;;;;75.18;29.88;;;;;;;3.42;100.00;101147.25;5007702;28;20030;-74
2021/01/05 10:22:41;;;;;;;77.68;31.00;;;;;;;3.38;100.00;101134.97;5006274;28;20117;-74
2021/01/05 10:25:09;;;;;;;76.22;29.20;;;;;;;3.34;100.00;101130.66;4991325;28;20709;-74
2021/01/05 10:27:35;;;;;;;76.70;29.48;;;;;;;3.38;100.00;101134.97;5004535;28;20537;-74
2021/01/05 10:30:00;;;;;;;74.22;29.92;;;;;;;3.30;100.00;101139.63;4989424;28;20034;-73
2021/01/05 10:32:28;;;;;;;78.18;30.85;;;;;;;3.37;100.00;101141.19;5022543;28;20061;-74
2021/01/05 10:34:53;;;;;;;74.07;29.13;;;;;;;3.33;100.00;101139.56;5008533;28;20036;-74
2021/01/05 10:37:18;;;;;;;73.38;29.58;;;;;;;3.37;100.00;101143.84;4989926;28;20084;-74
2021/01/05 10:39:44;;;;;;;72.30;30.13;;;;;;;3.42;100.00;101136.63;5004029;28;20132;-75
2021/01/05 10:42:09;;;;;;;81.35;30.65;;;;;;;3.39;100.00;101144.69;5007276;28;20451;-74
2021/01/05 10:44:35;;;;;;;73.45;30.70;;;;;;;3.37;100.00;101144.72;5007638;28;20034;-74
2021/01/05 10:47:03;;;;;;;78.47;29.95;;;;;;;3.47;100.00;101137.34;5007731;28;20038;-74
2021/01/05 10:49:28;;;;;;;68.97;28.33;;;;;;;3.33;100.00;101142.22;4987402;28;20049;-72
2021/01/05 10:51:57;;;;;;;74.57;29.20;;;;;;;3.46;100.00;101139.13;5006776;28;20482;-74
2021/01/05 10:54:26;;;;;;;78.38;30.70;;;;;;;3.48;100.00;101145.28;5003825;28;20457;-74
2021/01/05 10:56:57;;;;;;;72.18;29.35;;;;;;;3.34;100.00;101154.53;5006222;28;20034;-74
2021/01/05 10:59:23;;;;;;;76.78;30.35;;;;;;;3.52;100.00;101146.06;5008078;28;20033;-74
2021/01/05 11:01:49;;;;;;;75.45;30.65;;;;;;;3.45;100.00;101141.84;5004984;28;20064;-74
2021/01/05 11:04:14;;;;;;;74.32;29.65;;;;;;;3.51;100.00;101141.69;5007112;28;20033;-74
2021/01/05 11:06:50;;;;;;;73.97;29.15;;;;;;;3.42;100.00;101136.63;5008159;28;20030;-74
2021/01/05 11:09:15;;;;;;;74.53;28.15;;;;;;;3.44;100.00;101134.81;5005169;28;20046;-74
2021/01/05 11:11:41;;;;;;;86.22;34.78;;;;;;;3.52;100.00;101138.09;5011083;28;20088;-74
2021/01/05 11:14:06;;;;;;;72.88;29.15;;;;;;;3.54;100.00;101129.19;5006669;28;20030;-74
2021/01/05 11:16:31;;;;;;;79.07;32.28;;;;;;;3.48;100.00;101128.50;5011243;28;20490;-74
2021/01/05 11:18:57;;;;;;;75.30;30.00;;;;;;;3.53;100.00;101126.56;5009964;28;20042;-74
2021/01/05 11:21:22;;;;;;;75.05;29.60;;;;;;;3.62;100.00;101134.28;5010760;28;20109;-72
2021/01/05 11:23:47;;;;;;;79.93;31.17;;;;;;;3.60;100.00;101131.66;5008268;28;20037;-74
2021/01/05 11:26:13;;;;;;;76.22;30.98;;;;;;;3.51;100.00;101120.44;5011777;28;20033;-74
2021/01/05 11:28:38;;;;;;;98.75;36.60;;;;;;;3.51;100.00;101126.63;5010082;28;20049;-74
2021/01/05 11:31:04;;;;;;;79.97;33.33;;;;;;;3.60;100.00;101125.47;5008647;28;20034;-74
2021/01/05 11:33:30;;;;;;;80.97;31.17;;;;;;;3.59;100.00;101113.13;5009890;28;20084;-74